createdAt,value
2019-04-14T00:00:43.089Z,48.20
2019-04-14T00:03:34.720Z,45.27
2019-04-14T00:06:22.421Z,45.97
2019-04-14T00:09:09.627Z,50.67
2019-04-14T00:11:56.933Z,44.07
2019-04-14T00:14:44.607Z,44.63
2019-04-14T00:17:32.420Z,44.70
2019-04-14T00:20:20.414Z,45.67
2019-04-14T00:23:08.685Z,46.40
2019-04-14T00:25:56.473Z,41.90
2019-04-14T00:28:43.360Z,46.60
2019-04-14T00:31:30.756Z,47.60
2019-04-14T00:34:25.276Z,45.13
2019-04-14T00:37:16.438Z,45.17
2019-04-14T00:40:10.754Z,47.43
2019-04-14T00:43:04.975Z,46.63
2019-04-14T00:45:58.179Z,45.17
2019-04-14T00:48:45.920Z,47.67
2019-04-14T00:51:33.110Z,47.40
2019-04-14T00:54:19.742Z,50.93
2019-04-14T00:57:07.309Z,46.10
2019-04-14T00:59:55.211Z,46.53
2019-04-14T01:02:42.947Z,46.97
2019-04-14T01:05:32.608Z,51.73
2019-04-14T01:08:18.513Z,50.60
2019-04-14T01:11:05.382Z,48.87
2019-04-14T01:13:52.958Z,46.07
2019-04-14T01:16:40.748Z,50.67
2019-04-14T01:19:28.665Z,51.10
2019-04-14T01:22:16.279Z,48.03
2019-04-14T01:25:04.252Z,49.63
2019-04-14T01:27:51.740Z,45.13
2019-04-14T01:30:39.459Z,48.67
2019-04-14T01:33:27.249Z,51.90
2019-04-14T01:36:14.845Z,51.93
2019-04-14T01:39:02.462Z,53.70
2019-04-14T01:41:50.651Z,46.93
2019-04-14T01:44:37.421Z,50.33
2019-04-14T01:47:24.902Z,54.33
2019-04-14T01:50:12.815Z,54.37
2019-04-14T01:53:10.194Z,52.07
2019-04-14T01:56:01.601Z,56.57
2019-04-14T01:58:53.992Z,48.03
2019-04-14T02:01:42.165Z,52.13
2019-04-14T02:04:28.874Z,53.47
2019-04-14T02:07:16.622Z,56.03
2019-04-14T02:14:21.429Z,54.50
2019-04-14T02:17:09.477Z,51.50
2019-04-14T02:19:56.798Z,52.70
2019-04-14T02:22:44.106Z,52.90
2019-04-14T02:25:31.778Z,56.60
2019-04-14T02:28:18.302Z,54.73
2019-04-14T02:31:17.159Z,54.03
2019-04-14T02:34:28.403Z,50.37
2019-04-14T02:37:12.467Z,55.20
2019-04-14T02:40:01.343Z,55.27
2019-04-14T02:45:40.195Z,53.03
2019-04-14T02:51:13.779Z,51.03
2019-04-14T02:54:07.127Z,49.93
2019-04-14T02:57:05.424Z,51.17
2019-04-14T02:59:35.496Z,52.73
2019-04-14T03:05:09.484Z,51.40
2019-04-14T03:08:00.514Z,51.03
2019-04-14T03:10:51.562Z,57.43
2019-04-14T03:13:45.514Z,53.33
2019-04-14T03:16:31.348Z,53.67
2019-04-14T03:19:27.217Z,53.43
2019-04-14T03:22:32.625Z,50.97
2019-04-14T03:25:22.630Z,52.67
2019-04-14T03:28:36.474Z,52.17
2019-04-14T03:31:41.683Z,55.50
2019-04-14T03:34:30.626Z,54.07
2019-04-14T03:42:36.075Z,53.13
2019-04-14T03:45:29.988Z,54.33
2019-04-14T03:48:44.871Z,53.00
2019-04-14T03:51:06.744Z,50.23
2019-04-14T03:53:40.001Z,53.87
2019-04-14T03:56:12.606Z,51.03
2019-04-14T03:58:57.885Z,51.80
2019-04-14T04:01:45.588Z,51.83
2019-04-14T04:04:33.660Z,52.20
2019-04-14T04:07:21.428Z,50.73
2019-04-14T04:10:09.720Z,49.57
2019-04-14T04:12:57.590Z,54.53
2019-04-14T04:15:45.477Z,49.40
2019-04-14T04:18:44.175Z,48.10
2019-04-14T04:21:31.226Z,46.20
2019-04-14T04:24:38.803Z,47.30
2019-04-14T04:27:28.658Z,45.33
2019-04-14T04:30:29.735Z,50.77
2019-04-14T04:33:30.572Z,47.63
2019-04-14T04:36:35.421Z,45.90
2019-04-14T04:39:24.016Z,49.80
2019-04-14T04:42:11.287Z,48.63
2019-04-14T04:44:58.126Z,48.53
2019-04-14T04:47:44.833Z,48.07
2019-04-14T04:50:32.389Z,48.60
2019-04-14T04:53:20.169Z,45.03
2019-04-14T04:56:08.006Z,45.80
2019-04-14T04:58:54.587Z,45.00
2019-04-14T05:01:41.142Z,49.50
2019-04-14T05:04:28.651Z,45.10
2019-04-14T05:07:16.542Z,47.43
2019-04-14T05:10:24.144Z,44.83
2019-04-14T05:13:11.841Z,46.23
2019-04-14T05:15:58.422Z,41.43
2019-04-14T05:18:46.227Z,41.60
2019-04-14T05:21:34.221Z,43.50
2019-04-14T05:24:22.124Z,39.20
2019-04-14T05:27:09.934Z,42.43
2019-04-14T05:29:57.932Z,46.10
2019-04-14T05:32:45.523Z,42.87
2019-04-14T05:35:33.313Z,42.30
2019-04-14T05:38:21.131Z,40.60
2019-04-14T05:41:09.103Z,39.80
2019-04-14T05:43:59.916Z,39.77
2019-04-14T05:46:44.678Z,41.57
2019-04-14T05:49:40.948Z,38.47
2019-04-14T05:52:20.654Z,35.40
2019-04-14T05:55:08.675Z,35.40
2019-04-14T05:57:56.708Z,35.30
2019-04-14T06:00:46.268Z,34.13
2019-04-14T06:03:34.240Z,30.07
2019-04-14T06:06:20.870Z,33.17
2019-04-14T06:09:07.604Z,33.33
2019-04-14T06:11:54.336Z,33.13
2019-04-14T06:14:41.911Z,33.60
2019-04-14T06:17:28.446Z,33.23
2019-04-14T06:20:15.314Z,32.80
2019-04-14T06:23:01.978Z,31.07
2019-04-14T06:25:48.705Z,33.93
2019-04-14T06:28:35.234Z,31.80
2019-04-14T06:31:32.757Z,31.87
2019-04-14T06:34:20.897Z,31.00
2019-04-14T06:37:09.185Z,33.70
2019-04-14T06:39:57.910Z,33.53
2019-04-14T06:42:44.354Z,32.93
2019-04-14T06:45:31.146Z,34.47
2019-04-14T06:48:18.061Z,32.33
2019-04-14T06:51:04.875Z,33.13
2019-04-14T06:53:51.464Z,31.20
2019-04-14T06:56:38.431Z,29.47
2019-04-14T06:59:25.201Z,29.30
2019-04-14T07:02:11.993Z,30.63
2019-04-14T07:04:58.625Z,26.63
2019-04-14T07:07:56.175Z,26.67
2019-04-14T07:10:33.756Z,25.93
2019-04-14T07:13:20.346Z,26.83
2019-04-14T07:16:07.194Z,27.37
2019-04-14T07:18:53.672Z,24.00
2019-04-14T07:21:40.565Z,24.33
2019-04-14T07:24:27.093Z,26.87
2019-04-14T07:27:13.658Z,29.00
2019-04-14T07:30:02.156Z,22.60
2019-04-14T07:32:51.800Z,22.70
2019-04-14T07:35:49.117Z,22.47
2019-04-14T07:38:37.653Z,21.73
2019-04-14T07:41:28.937Z,24.00
2019-04-14T07:44:23.451Z,24.63
2019-04-14T07:47:17.993Z,20.77
2019-04-14T07:50:14.436Z,23.10
2019-04-14T07:53:05.374Z,21.53
2019-04-14T07:55:53.442Z,22.97
2019-04-14T07:58:41.686Z,24.17
2019-04-14T08:01:42.216Z,22.20
2019-04-14T08:04:33.330Z,20.30
2019-04-14T08:07:20.203Z,23.77
2019-04-14T08:10:07.022Z,20.83
2019-04-14T08:12:53.634Z,19.00
2019-04-14T08:15:40.202Z,23.50
2019-04-14T08:18:27.117Z,18.73
2019-04-14T08:21:13.606Z,22.57
2019-04-14T08:24:00.149Z,18.50
2019-04-14T08:26:47.010Z,21.10
2019-04-14T08:29:33.585Z,19.93
2019-04-14T08:32:20.109Z,17.53
2019-04-14T08:35:06.976Z,18.93
2019-04-14T08:37:53.551Z,18.67
2019-04-14T08:40:40.086Z,17.03
2019-04-14T08:43:44.603Z,16.63
2019-04-14T08:46:33.105Z,19.60
2019-04-14T08:49:24.598Z,17.97
2019-04-14T08:52:13.074Z,16.90
2019-04-14T08:55:16.330Z,17.83
2019-04-14T08:58:04.736Z,15.57
2019-04-14T09:00:58.961Z,19.73
2019-04-14T09:03:47.173Z,13.57
2019-04-14T09:06:38.604Z,16.07
2019-04-14T09:09:27.077Z,15.20
2019-04-14T09:12:18.216Z,15.90
2019-04-14T09:15:06.097Z,17.03
2019-04-14T09:17:52.860Z,15.07
2019-04-14T09:20:51.369Z,16.00
2019-04-14T09:23:28.005Z,19.63
2019-04-14T09:26:14.536Z,15.27
2019-04-14T09:29:01.112Z,16.63
2019-04-14T09:31:47.737Z,16.07
2019-04-14T09:34:34.572Z,15.17
2019-04-14T09:37:21.413Z,17.83
2019-04-14T09:40:07.949Z,16.43
2019-04-14T09:42:57.653Z,15.03
2019-04-14T09:45:42.984Z,15.00
2019-04-14T09:48:29.696Z,17.37
2019-04-14T09:51:16.413Z,16.17
2019-04-14T09:54:03.006Z,15.97
2019-04-14T09:56:49.685Z,16.23
2019-04-14T09:59:36.278Z,14.90
2019-04-14T10:02:23.129Z,16.67
2019-04-14T10:05:09.756Z,17.37
2019-04-14T10:07:56.234Z,18.00
2019-04-14T10:10:42.924Z,16.23
2019-04-14T10:13:29.861Z,16.13
2019-04-14T10:16:16.716Z,15.87
2019-04-14T10:19:03.347Z,15.97
2019-04-14T10:21:50.114Z,17.73
2019-04-14T10:24:36.623Z,15.53
2019-04-14T10:27:23.487Z,14.97
2019-04-14T10:30:10.196Z,15.10
2019-04-14T10:32:57.013Z,15.30
2019-04-14T10:35:43.783Z,14.33
2019-04-14T10:38:30.524Z,14.50
2019-04-14T10:41:17.092Z,15.47
2019-04-14T10:44:03.902Z,15.90
2019-04-14T10:46:50.738Z,13.57
2019-04-14T10:49:37.289Z,14.80
2019-04-14T10:52:23.882Z,15.77
2019-04-14T10:55:10.812Z,13.03
2019-04-14T10:57:57.358Z,17.00
2019-04-14T11:00:43.848Z,15.00
2019-04-14T11:03:30.513Z,15.53
2019-04-14T11:06:18.759Z,15.03
2019-04-14T11:09:06.185Z,17.33
2019-04-14T11:11:53.311Z,18.30
2019-04-14T11:14:39.892Z,17.00
2019-04-14T11:17:26.501Z,16.70
2019-04-14T11:20:13.125Z,16.87
2019-04-14T11:23:03.472Z,15.33
2019-04-14T11:25:47.952Z,15.70
2019-04-14T11:28:34.693Z,14.40
2019-04-14T11:31:23.260Z,15.67
2019-04-14T11:34:11.625Z,15.07
2019-04-14T11:37:12.163Z,16.83
2019-04-14T11:39:58.735Z,15.50
2019-04-14T11:42:52.163Z,15.07
2019-04-14T11:45:35.088Z,16.73
2019-04-14T11:48:21.774Z,14.93
2019-04-14T11:51:08.384Z,16.37
2019-04-14T11:53:54.905Z,16.40
2019-04-14T11:56:41.482Z,14.33
2019-04-14T11:59:30.052Z,16.83
2019-04-14T12:02:21.232Z,14.47
2019-04-14T12:05:21.529Z,16.20
2019-04-14T12:08:22.021Z,16.30
2019-04-14T12:11:08.575Z,16.63
2019-04-14T12:13:55.333Z,14.00
2019-04-14T12:16:41.914Z,15.27
2019-04-14T12:19:28.744Z,15.97
2019-04-14T12:22:15.544Z,14.37
2019-04-14T12:25:02.161Z,15.73
2019-04-14T12:27:49.181Z,14.77
2019-04-14T12:30:35.768Z,18.07
2019-04-14T12:33:22.394Z,13.97
2019-04-14T12:36:08.956Z,17.13
2019-04-14T12:38:55.581Z,15.93
2019-04-14T12:41:47.945Z,16.03
2019-04-14T12:44:51.566Z,16.10
2019-04-14T12:47:40.329Z,14.50
2019-04-14T12:50:32.053Z,16.07
2019-04-14T12:53:18.854Z,15.43
2019-04-14T12:56:05.457Z,15.60
2019-04-14T12:58:54.694Z,15.73
2019-04-14T13:02:01.418Z,19.37
2019-04-14T13:04:48.273Z,14.37
2019-04-14T13:07:36.861Z,14.63
2019-04-14T13:10:23.364Z,15.60
2019-04-14T13:13:09.925Z,13.40
2019-04-14T13:15:56.393Z,16.97
2019-04-14T13:18:43.002Z,15.33
2019-04-14T13:21:29.575Z,14.53
2019-04-14T13:24:16.068Z,16.30
2019-04-14T13:27:02.562Z,14.23
2019-04-14T13:29:49.102Z,15.67
2019-04-14T13:32:36.513Z,13.80
2019-04-14T13:35:23.437Z,14.53
2019-04-14T13:38:10.369Z,16.33
2019-04-14T13:40:57.206Z,15.97
2019-04-14T13:43:43.697Z,17.17
2019-04-14T13:46:30.428Z,17.13
2019-04-14T13:49:16.950Z,15.27
2019-04-14T13:52:03.745Z,17.20
2019-04-14T13:54:50.601Z,16.43
2019-04-14T13:57:37.140Z,16.00
2019-04-14T14:00:23.632Z,16.27
2019-04-14T14:03:10.322Z,16.40
2019-04-14T14:05:57.180Z,14.93
2019-04-14T14:08:43.706Z,15.80
2019-04-14T14:11:32.452Z,15.53
2019-04-14T14:14:29.747Z,16.33
2019-04-14T14:17:30.186Z,14.33
2019-04-14T14:20:18.305Z,14.60
2019-04-14T14:23:09.699Z,15.17
2019-04-14T14:26:14.051Z,14.10
2019-04-14T14:29:00.705Z,13.67
2019-04-14T14:31:47.322Z,13.63
2019-04-14T14:34:33.889Z,15.77
2019-04-14T14:37:20.701Z,13.40
2019-04-14T14:40:07.226Z,13.63
2019-04-14T14:42:53.752Z,10.63
2019-04-14T14:45:47.918Z,15.67
2019-04-14T14:48:42.277Z,11.27
2019-04-14T14:51:33.566Z,9.43
2019-04-14T14:54:20.170Z,10.03
2019-04-14T14:57:06.778Z,13.17
2019-04-14T14:59:53.323Z,9.90
2019-04-14T15:02:39.865Z,10.80
2019-04-14T15:05:26.482Z,12.10
2019-04-14T15:08:13.587Z,10.60
2019-04-14T15:11:00.261Z,10.10
2019-04-14T15:13:47.097Z,8.73
2019-04-14T15:16:33.685Z,9.33
2019-04-14T15:19:20.249Z,10.63
2019-04-14T15:22:07.166Z,10.27
2019-04-14T15:24:53.701Z,8.40
2019-04-14T15:27:40.246Z,10.27
2019-04-14T15:30:26.814Z,8.57
2019-04-14T15:33:13.355Z,9.97
2019-04-14T15:36:00.181Z,8.87
2019-04-14T15:38:46.969Z,9.63
2019-04-14T15:41:33.544Z,11.03
2019-04-14T15:44:20.338Z,9.47
2019-04-14T15:47:06.919Z,10.30
2019-04-14T15:49:53.778Z,16.27
2019-04-14T15:52:40.605Z,8.87
2019-04-14T15:55:27.265Z,10.50
2019-04-14T15:58:28.669Z,9.93
2019-04-14T16:01:19.774Z,9.07
2019-04-14T16:04:15.020Z,9.80
2019-04-14T16:07:19.667Z,9.90
2019-04-14T16:10:08.133Z,9.67
2019-04-14T16:13:02.250Z,9.87
2019-04-14T16:15:50.665Z,10.37
2019-04-14T16:18:44.861Z,11.07
2019-04-14T16:21:31.389Z,11.30
2019-04-14T16:24:18.077Z,11.23
2019-04-14T16:27:06.172Z,10.33
2019-04-14T16:29:54.637Z,13.03
2019-04-14T16:32:59.184Z,14.27
2019-04-14T16:35:48.053Z,12.53
2019-04-14T16:38:34.646Z,9.60
2019-04-14T16:41:21.189Z,10.47
2019-04-14T16:44:07.797Z,10.97
2019-04-14T16:46:54.313Z,10.53
2019-04-14T16:49:40.828Z,12.20
2019-04-14T16:52:29.109Z,11.10
2019-04-14T16:55:23.332Z,11.70
2019-04-14T16:58:20.609Z,10.80
2019-04-14T17:01:11.686Z,11.73
2019-04-14T17:03:58.503Z,10.70
2019-04-14T17:06:45.401Z,9.80
2019-04-14T17:09:32.034Z,9.17
2019-04-14T17:12:19.651Z,10.00
2019-04-14T17:15:11.177Z,11.53
2019-04-14T17:18:16.084Z,9.43
2019-04-14T17:21:13.739Z,8.80
2019-04-14T17:24:02.511Z,9.90
2019-04-14T17:26:52.374Z,9.00
2019-04-14T17:29:40.869Z,11.07
2019-04-14T17:32:31.989Z,11.50
2019-04-14T17:35:23.401Z,10.13
2019-04-14T17:38:27.919Z,11.10
2019-04-14T17:41:22.037Z,11.33
2019-04-14T17:44:16.593Z,8.87
2019-04-14T17:47:08.061Z,8.97
2019-04-14T17:50:00.325Z,8.43
2019-04-14T17:53:06.737Z,10.23
2019-04-14T17:55:54.994Z,10.17
2019-04-14T17:58:59.345Z,9.53
2019-04-14T18:01:59.915Z,8.47
2019-04-14T18:04:54.392Z,10.43
2019-04-14T18:07:42.708Z,8.30
2019-04-14T18:10:36.921Z,8.83
2019-04-14T18:13:31.174Z,8.73
2019-04-14T18:16:31.430Z,8.70
2019-04-14T18:19:37.972Z,8.97
2019-04-14T18:22:24.272Z,8.33
2019-04-14T18:25:10.619Z,7.90
2019-04-14T18:27:58.818Z,7.73
2019-04-14T18:30:56.329Z,7.23
2019-04-14T18:33:44.889Z,7.97
2019-04-14T18:36:50.353Z,8.00
2019-04-14T18:39:50.889Z,8.13
2019-04-14T18:42:45.269Z,6.57
2019-04-14T18:45:36.397Z,5.97
2019-04-14T18:48:24.699Z,8.57
2019-04-14T18:51:16.125Z,6.47
2019-04-14T18:54:04.475Z,6.80
2019-04-14T18:56:52.762Z,7.80
2019-04-14T18:59:53.301Z,6.57
2019-04-14T19:02:39.823Z,6.60
2019-04-14T19:05:26.673Z,6.60
2019-04-14T19:08:13.263Z,6.80
2019-04-14T19:11:13.628Z,8.27
2019-04-14T19:14:01.800Z,6.23
2019-04-14T19:16:49.933Z,7.37
2019-04-14T19:19:46.370Z,6.17
2019-04-14T19:22:33.209Z,7.50
2019-04-14T19:25:20.097Z,6.63
2019-04-14T19:28:06.941Z,6.17
2019-04-14T19:30:53.567Z,6.50
2019-04-14T19:33:40.394Z,6.07
2019-04-14T19:36:26.907Z,6.50
2019-04-14T19:39:13.721Z,6.70
2019-04-14T19:42:01.134Z,6.10
2019-04-14T19:44:47.724Z,6.10
2019-04-14T19:47:34.301Z,9.27
2019-04-14T19:50:21.550Z,5.77
2019-04-14T19:53:08.450Z,6.00
2019-04-14T19:55:55.070Z,5.90
2019-04-14T19:58:41.606Z,6.40
2019-04-14T20:01:28.548Z,6.50
2019-04-14T20:04:15.462Z,5.23
2019-04-14T20:07:02.049Z,6.87
2019-04-14T20:09:49.177Z,5.97
2019-04-14T20:12:35.769Z,5.97
2019-04-14T20:15:24.149Z,5.30
2019-04-14T20:18:28.941Z,5.97
2019-04-14T20:21:26.374Z,6.33
2019-04-14T20:24:18.793Z,5.27
2019-04-14T20:27:12.958Z,5.90
2019-04-14T20:30:10.432Z,5.20
2019-04-14T20:32:57.379Z,5.10
2019-04-14T20:35:43.899Z,5.97
2019-04-14T20:38:30.434Z,6.67
2019-04-14T20:41:17.033Z,5.03
2019-04-14T20:44:03.666Z,5.60
2019-04-14T20:46:50.206Z,4.93
2019-04-14T20:49:38.315Z,4.73
2019-04-14T20:52:26.353Z,5.13
2019-04-14T20:55:13.093Z,4.73
2019-04-14T20:58:00.162Z,6.60
2019-04-14T21:00:46.674Z,4.80
2019-04-14T21:03:40.801Z,4.80
2019-04-14T21:06:29.008Z,5.10
2019-04-14T21:09:23.076Z,4.43
2019-04-14T21:12:11.325Z,4.97
2019-04-14T21:14:59.567Z,5.27
2019-04-14T21:17:53.814Z,4.93
2019-04-14T21:20:42.042Z,4.43
2019-04-14T21:26:29.974Z,5.03
2019-04-14T21:29:20.388Z,4.80
2019-04-14T21:32:11.847Z,5.10
2019-04-14T21:35:16.338Z,4.73
2019-04-14T21:38:04.647Z,4.73
2019-04-14T21:40:53.092Z,4.83
2019-04-14T21:43:39.881Z,4.83
2019-04-14T21:46:26.757Z,5.80
2019-04-14T21:49:13.581Z,4.90
2019-04-14T21:52:11.077Z,4.43
2019-04-14T21:54:57.626Z,5.63
2019-04-14T21:57:55.037Z,9.70
2019-04-14T22:00:59.627Z,5.03
2019-04-14T22:03:54.019Z,5.17
2019-04-14T22:06:42.602Z,5.23
2019-04-14T22:09:31.018Z,5.13
2019-04-14T22:12:17.630Z,7.23
2019-04-14T22:15:04.242Z,6.10
2019-04-14T22:17:50.829Z,6.20
2019-04-14T22:20:37.625Z,5.50
2019-04-14T22:23:24.168Z,5.90
2019-04-14T22:26:11.089Z,6.03
2019-04-14T22:28:57.854Z,6.60
2019-04-14T22:31:45.021Z,5.97
2019-04-14T22:34:31.861Z,6.17
2019-04-14T22:37:18.355Z,5.73
2019-04-14T22:40:05.146Z,4.83
2019-04-14T22:42:51.705Z,6.23
2019-04-14T22:45:38.425Z,6.77
2019-04-14T22:48:26.049Z,5.80
2019-04-14T22:51:12.829Z,6.43
2019-04-14T22:53:59.401Z,6.07
2019-04-14T22:56:45.991Z,6.20
2019-04-14T22:59:32.755Z,5.90
2019-04-14T23:02:21.205Z,5.93
2019-04-14T23:05:09.617Z,6.97
2019-04-14T23:07:58.311Z,6.10
2019-04-14T23:11:02.849Z,7.60
2019-04-14T23:13:53.949Z,7.20
2019-04-14T23:16:58.301Z,5.83
2019-04-14T23:19:50.341Z,7.53
2019-04-14T23:22:38.705Z,8.60
2019-04-14T23:25:25.581Z,8.90
2019-04-14T23:28:12.473Z,8.10
2019-04-14T23:31:01.650Z,8.80
2019-04-14T23:33:47.698Z,8.77
2019-04-14T23:36:34.565Z,7.43
2019-04-14T23:39:21.329Z,8.40
2019-04-14T23:42:08.126Z,8.93
2019-04-14T23:44:55.030Z,8.47
2019-04-14T23:47:41.805Z,8.77
2019-04-14T23:50:28.365Z,10.10
2019-04-14T23:53:15.085Z,8.07
2019-04-14T23:56:01.894Z,9.43
2019-04-14T23:58:48.716Z,9.23
